sensor_id;sensor_type;location;lat;lon;timestamp;P1;durP1;ratioP1;P2;durP2;ratioP2
69358;SDS011;56520;49.066;8.660;2022-11-21T00:01:10;3.50;;;0.70;;
69358;SDS011;56520;49.066;8.660;2022-11-21T00:03:46;1.80;;;0.77;;
69358;SDS011;56520;49.066;8.660;2022-11-21T00:06:12;0.95;;;0.60;;
69358;SDS011;56520;49.066;8.660;2022-11-21T00:08:38;2.17;;;0.50;;
69358;SDS011;56520;49.066;8.660;2022-11-21T00:11:03;0.85;;;0.40;;
69358;SDS011;56520;49.066;8.660;2022-11-21T00:13:28;0.88;;;0.30;;
69358;SDS011;56520;49.066;8.660;2022-11-21T00:15:54;1.15;;;0.60;;
69358;SDS011;56520;49.066;8.660;2022-11-21T00:18:19;0.35;;;0.35;;
69358;SDS011;56520;49.066;8.660;2022-11-21T00:20:45;1.23;;;0.90;;
69358;SDS011;56520;49.066;8.660;2022-11-21T00:23:10;0.63;;;0.47;;
69358;SDS011;56520;49.066;8.660;2022-11-21T00:25:36;1.23;;;0.55;;
69358;SDS011;56520;49.066;8.660;2022-11-21T00:28:03;1.20;;;0.50;;
69358;SDS011;56520;49.066;8.660;2022-11-21T00:30:29;2.10;;;0.73;;
69358;SDS011;56520;49.066;8.660;2022-11-21T00:32:56;2.38;;;0.63;;
69358;SDS011;56520;49.066;8.660;2022-11-21T00:35:22;1.27;;;0.50;;
69358;SDS011;56520;49.066;8.660;2022-11-21T00:37:48;0.60;;;0.40;;
69358;SDS011;56520;49.066;8.660;2022-11-21T00:40:14;2.28;;;0.75;;
69358;SDS011;56520;49.066;8.660;2022-11-21T00:42:40;0.65;;;0.35;;
69358;SDS011;56520;49.066;8.660;2022-11-21T00:45:06;3.13;;;0.75;;
69358;SDS011;56520;49.066;8.660;2022-11-21T00:47:32;2.85;;;0.50;;
69358;SDS011;56520;49.066;8.660;2022-11-21T00:49:57;1.30;;;0.50;;
69358;SDS011;56520;49.066;8.660;2022-11-21T00:52:23;1.05;;;0.52;;
69358;SDS011;56520;49.066;8.660;2022-11-21T00:54:48;1.20;;;0.52;;
69358;SDS011;56520;49.066;8.660;2022-11-21T00:57:13;1.67;;;0.60;;
69358;SDS011;56520;49.066;8.660;2022-11-21T00:59:39;1.88;;;0.85;;
69358;SDS011;56520;49.066;8.660;2022-11-21T01:02:04;2.38;;;1.00;;
69358;SDS011;56520;49.066;8.660;2022-11-21T01:04:30;2.28;;;0.85;;
69358;SDS011;56520;49.066;8.660;2022-11-21T01:06:57;0.98;;;0.45;;
69358;SDS011;56520;49.066;8.660;2022-11-21T01:09:22;0.90;;;0.40;;
69358;SDS011;56520;49.066;8.660;2022-11-21T01:11:48;1.88;;;0.55;;
69358;SDS011;56520;49.066;8.660;2022-11-21T01:14:13;1.48;;;0.70;;
69358;SDS011;56520;49.066;8.660;2022-11-21T01:16:39;3.78;;;0.90;;
69358;SDS011;56520;49.066;8.660;2022-11-21T01:19:05;4.20;;;0.93;;
69358;SDS011;56520;49.066;8.660;2022-11-21T01:21:30;2.70;;;0.80;;
69358;SDS011;56520;49.066;8.660;2022-11-21T01:24:00;1.80;;;0.80;;
69358;SDS011;56520;49.066;8.660;2022-11-21T01:26:27;1.85;;;0.60;;
69358;SDS011;56520;49.066;8.660;2022-11-21T01:28:53;2.03;;;0.60;;
69358;SDS011;56520;49.066;8.660;2022-11-21T01:31:21;0.70;;;0.40;;
69358;SDS011;56520;49.066;8.660;2022-11-21T01:33:48;1.27;;;0.50;;
69358;SDS011;56520;49.066;8.660;2022-11-21T01:36:18;1.08;;;0.45;;
69358;SDS011;56520;49.066;8.660;2022-11-21T01:38:44;1.50;;;0.50;;
69358;SDS011;56520;49.066;8.660;2022-11-21T01:41:13;0.55;;;0.35;;
69358;SDS011;56520;49.066;8.660;2022-11-21T01:43:43;0.73;;;0.32;;
69358;SDS011;56520;49.066;8.660;2022-11-21T01:48:38;0.85;;;0.43;;
69358;SDS011;56520;49.066;8.660;2022-11-21T01:51:12;3.15;;;0.57;;
69358;SDS011;56520;49.066;8.660;2022-11-21T01:53:39;1.98;;;0.50;;
69358;SDS011;56520;49.066;8.660;2022-11-21T01:56:08;1.85;;;0.50;;
69358;SDS011;56520;49.066;8.660;2022-11-21T01:58:34;9.10;;;0.90;;
69358;SDS011;56520;49.066;8.660;2022-11-21T02:01:04;0.63;;;0.47;;
69358;SDS011;56520;49.066;8.660;2022-11-21T02:03:30;2.35;;;0.77;;
69358;SDS011;56520;49.066;8.660;2022-11-21T02:06:00;2.22;;;0.70;;
69358;SDS011;56520;49.066;8.660;2022-11-21T02:08:26;3.50;;;0.60;;
69358;SDS011;56520;49.066;8.660;2022-11-21T02:11:02;2.72;;;0.70;;
69358;SDS011;56520;49.066;8.660;2022-11-21T02:13:35;0.93;;;0.57;;
69358;SDS011;56520;49.066;8.660;2022-11-21T02:16:01;1.02;;;0.50;;
69358;SDS011;56520;49.066;8.660;2022-11-21T02:18:27;2.65;;;0.63;;
69358;SDS011;56520;49.066;8.660;2022-11-21T02:20:56;3.20;;;0.70;;
69358;SDS011;56520;49.066;8.660;2022-11-21T02:23:42;1.70;;;0.40;;
69358;SDS011;56520;49.066;8.660;2022-11-21T02:26:13;1.02;;;0.45;;
69358;SDS011;56520;49.066;8.660;2022-11-21T02:28:39;1.48;;;0.60;;
69358;SDS011;56520;49.066;8.660;2022-11-21T02:31:05;0.65;;;0.38;;
69358;SDS011;56520;49.066;8.660;2022-11-21T02:33:30;1.65;;;0.43;;
69358;SDS011;56520;49.066;8.660;2022-11-21T02:35:57;0.20;;;0.20;;
69358;SDS011;56520;49.066;8.660;2022-11-21T02:38:27;1.88;;;0.50;;
69358;SDS011;56520;49.066;8.660;2022-11-21T02:41:01;3.42;;;0.60;;
69358;SDS011;56520;49.066;8.660;2022-11-21T02:43:51;0.40;;;0.38;;
69358;SDS011;56520;49.066;8.660;2022-11-21T02:46:21;1.45;;;0.43;;
69358;SDS011;56520;49.066;8.660;2022-11-21T02:48:46;0.32;;;0.32;;
69358;SDS011;56520;49.066;8.660;2022-11-21T02:51:12;0.88;;;0.50;;
69358;SDS011;56520;49.066;8.660;2022-11-21T02:53:37;0.82;;;0.45;;
69358;SDS011;56520;49.066;8.660;2022-11-21T02:56:02;0.57;;;0.40;;
69358;SDS011;56520;49.066;8.660;2022-11-21T02:58:28;2.63;;;0.70;;
69358;SDS011;56520;49.066;8.660;2022-11-21T03:00:56;1.23;;;0.50;;
69358;SDS011;56520;49.066;8.660;2022-11-21T03:03:22;0.50;;;0.30;;
69358;SDS011;56520;49.066;8.660;2022-11-21T03:05:47;1.80;;;0.60;;
69358;SDS011;56520;49.066;8.660;2022-11-21T03:08:13;1.20;;;0.57;;
69358;SDS011;56520;49.066;8.660;2022-11-21T03:10:38;0.65;;;0.40;;
69358;SDS011;56520;49.066;8.660;2022-11-21T03:13:04;2.17;;;0.65;;
69358;SDS011;56520;49.066;8.660;2022-11-21T03:15:32;1.60;;;0.68;;
69358;SDS011;56520;49.066;8.660;2022-11-21T03:17:59;3.35;;;0.85;;
69358;SDS011;56520;49.066;8.660;2022-11-21T03:20:26;0.32;;;0.30;;
69358;SDS011;56520;49.066;8.660;2022-11-21T03:22:53;0.80;;;0.52;;
69358;SDS011;56520;49.066;8.660;2022-11-21T03:25:18;1.15;;;0.55;;
69358;SDS011;56520;49.066;8.660;2022-11-21T03:27:44;1.80;;;0.52;;
69358;SDS011;56520;49.066;8.660;2022-11-21T03:30:09;0.30;;;0.30;;
69358;SDS011;56520;49.066;8.660;2022-11-21T03:32:35;2.05;;;0.60;;
69358;SDS011;56520;49.066;8.660;2022-11-21T03:35:01;1.48;;;0.52;;
69358;SDS011;56520;49.066;8.660;2022-11-21T03:37:26;2.33;;;0.70;;
69358;SDS011;56520;49.066;8.660;2022-11-21T03:39:52;5.13;;;0.70;;
69358;SDS011;56520;49.066;8.660;2022-11-21T03:42:17;1.17;;;0.40;;
69358;SDS011;56520;49.066;8.660;2022-11-21T03:44:42;0.60;;;0.32;;
69358;SDS011;56520;49.066;8.660;2022-11-21T03:47:08;1.48;;;0.40;;
69358;SDS011;56520;49.066;8.660;2022-11-21T03:49:33;0.95;;;0.43;;
69358;SDS011;56520;49.066;8.660;2022-11-21T03:51:59;2.03;;;0.60;;
69358;SDS011;56520;49.066;8.660;2022-11-21T03:54:24;1.38;;;0.30;;
69358;SDS011;56520;49.066;8.660;2022-11-21T03:56:50;1.33;;;0.52;;
69358;SDS011;56520;49.066;8.660;2022-11-21T03:59:15;2.60;;;0.75;;
69358;SDS011;56520;49.066;8.660;2022-11-21T04:01:40;1.77;;;0.68;;
69358;SDS011;56520;49.066;8.660;2022-11-21T04:04:06;0.68;;;0.30;;
69358;SDS011;56520;49.066;8.660;2022-11-21T04:06:31;0.65;;;0.40;;
69358;SDS011;56520;49.066;8.660;2022-11-21T04:08:57;0.90;;;0.52;;
69358;SDS011;56520;49.066;8.660;2022-11-21T04:11:22;1.85;;;0.50;;
69358;SDS011;56520;49.066;8.660;2022-11-21T04:13:48;0.65;;;0.45;;
69358;SDS011;56520;49.066;8.660;2022-11-21T04:16:15;1.13;;;0.43;;
69358;SDS011;56520;49.066;8.660;2022-11-21T04:18:40;0.98;;;0.50;;
69358;SDS011;56520;49.066;8.660;2022-11-21T04:21:06;0.95;;;0.50;;
69358;SDS011;56520;49.066;8.660;2022-11-21T04:23:32;2.72;;;0.70;;
69358;SDS011;56520;49.066;8.660;2022-11-21T04:25:58;0.90;;;0.47;;
69358;SDS011;56520;49.066;8.660;2022-11-21T04:28:24;1.33;;;0.90;;
69358;SDS011;56520;49.066;8.660;2022-11-21T04:30:49;2.95;;;0.70;;
69358;SDS011;56520;49.066;8.660;2022-11-21T04:33:15;1.80;;;0.50;;
69358;SDS011;56520;49.066;8.660;2022-11-21T04:35:41;1.70;;;0.65;;
69358;SDS011;56520;49.066;8.660;2022-11-21T04:38:07;1.77;;;0.88;;
69358;SDS011;56520;49.066;8.660;2022-11-21T04:40:34;1.58;;;0.73;;
69358;SDS011;56520;49.066;8.660;2022-11-21T04:43:00;1.55;;;0.70;;
69358;SDS011;56520;49.066;8.660;2022-11-21T04:45:25;3.22;;;0.82;;
69358;SDS011;56520;49.066;8.660;2022-11-21T04:47:51;3.05;;;0.55;;
69358;SDS011;56520;49.066;8.660;2022-11-21T04:50:17;2.45;;;0.60;;
69358;SDS011;56520;49.066;8.660;2022-11-21T04:52:49;3.92;;;0.85;;
69358;SDS011;56520;49.066;8.660;2022-11-21T04:55:15;1.15;;;0.55;;
69358;SDS011;56520;49.066;8.660;2022-11-21T04:57:41;1.98;;;0.60;;
69358;SDS011;56520;49.066;8.660;2022-11-21T05:00:06;2.10;;;0.60;;
69358;SDS011;56520;49.066;8.660;2022-11-21T05:02:32;1.48;;;0.70;;
69358;SDS011;56520;49.066;8.660;2022-11-21T05:04:58;3.22;;;1.00;;
69358;SDS011;56520;49.066;8.660;2022-11-21T05:07:23;1.60;;;0.65;;
69358;SDS011;56520;49.066;8.660;2022-11-21T05:09:49;1.20;;;0.60;;
69358;SDS011;56520;49.066;8.660;2022-11-21T05:12:14;4.10;;;0.98;;
69358;SDS011;56520;49.066;8.660;2022-11-21T05:14:59;1.17;;;0.82;;
69358;SDS011;56520;49.066;8.660;2022-11-21T05:17:26;0.95;;;0.52;;
69358;SDS011;56520;49.066;8.660;2022-11-21T05:19:52;4.07;;;1.10;;
69358;SDS011;56520;49.066;8.660;2022-11-21T05:22:18;4.68;;;1.00;;
69358;SDS011;56520;49.066;8.660;2022-11-21T05:24:43;1.42;;;0.52;;
69358;SDS011;56520;49.066;8.660;2022-11-21T05:27:09;1.45;;;0.57;;
69358;SDS011;56520;49.066;8.660;2022-11-21T05:29:34;3.15;;;0.80;;
69358;SDS011;56520;49.066;8.660;2022-11-21T05:32:00;1.38;;;0.50;;
69358;SDS011;56520;49.066;8.660;2022-11-21T05:34:25;2.03;;;0.75;;
69358;SDS011;56520;49.066;8.660;2022-11-21T05:36:54;2.15;;;0.60;;
69358;SDS011;56520;49.066;8.660;2022-11-21T05:39:21;4.88;;;0.98;;
69358;SDS011;56520;49.066;8.660;2022-11-21T05:41:47;2.40;;;1.00;;
69358;SDS011;56520;49.066;8.660;2022-11-21T05:44:12;2.55;;;0.82;;
69358;SDS011;56520;49.066;8.660;2022-11-21T05:46:40;3.28;;;1.10;;
69358;SDS011;56520;49.066;8.660;2022-11-21T05:49:05;1.33;;;0.60;;
69358;SDS011;56520;49.066;8.660;2022-11-21T05:51:31;2.00;;;0.68;;
69358;SDS011;56520;49.066;8.660;2022-11-21T05:53:57;3.35;;;0.77;;
69358;SDS011;56520;49.066;8.660;2022-11-21T05:56:29;1.67;;;0.63;;
69358;SDS011;56520;49.066;8.660;2022-11-21T05:58:56;2.38;;;0.60;;
69358;SDS011;56520;49.066;8.660;2022-11-21T06:01:23;5.38;;;0.82;;
69358;SDS011;56520;49.066;8.660;2022-11-21T06:04:24;2.55;;;0.73;;
69358;SDS011;56520;49.066;8.660;2022-11-21T06:06:50;2.20;;;0.80;;
69358;SDS011;56520;49.066;8.660;2022-11-21T06:09:15;2.83;;;0.57;;
69358;SDS011;56520;49.066;8.660;2022-11-21T06:11:41;1.38;;;0.60;;
69358;SDS011;56520;49.066;8.660;2022-11-21T06:14:06;3.90;;;0.70;;
69358;SDS011;56520;49.066;8.660;2022-11-21T06:16:31;2.67;;;0.70;;
69358;SDS011;56520;49.066;8.660;2022-11-21T06:18:57;7.15;;;0.90;;
69358;SDS011;56520;49.066;8.660;2022-11-21T06:21:23;4.45;;;1.02;;
69358;SDS011;56520;49.066;8.660;2022-11-21T06:23:51;3.40;;;1.20;;
69358;SDS011;56520;49.066;8.660;2022-11-21T06:26:19;2.85;;;0.93;;
69358;SDS011;56520;49.066;8.660;2022-11-21T06:28:46;2.80;;;1.23;;
69358;SDS011;56520;49.066;8.660;2022-11-21T06:31:19;2.90;;;1.10;;
69358;SDS011;56520;49.066;8.660;2022-11-21T06:33:50;2.75;;;1.10;;
69358;SDS011;56520;49.066;8.660;2022-11-21T06:36:19;3.80;;;1.02;;
69358;SDS011;56520;49.066;8.660;2022-11-21T06:38:45;2.25;;;1.02;;
69358;SDS011;56520;49.066;8.660;2022-11-21T06:41:11;4.30;;;1.45;;
69358;SDS011;56520;49.066;8.660;2022-11-21T06:43:38;6.55;;;1.40;;
69358;SDS011;56520;49.066;8.660;2022-11-21T06:46:04;4.22;;;1.42;;
69358;SDS011;56520;49.066;8.660;2022-11-21T06:48:30;4.10;;;1.30;;
69358;SDS011;56520;49.066;8.660;2022-11-21T06:50:56;1.30;;;0.68;;
69358;SDS011;56520;49.066;8.660;2022-11-21T06:53:22;4.70;;;1.00;;
69358;SDS011;56520;49.066;8.660;2022-11-21T06:55:48;1.85;;;0.70;;
69358;SDS011;56520;49.066;8.660;2022-11-21T06:58:13;3.75;;;1.13;;
69358;SDS011;56520;49.066;8.660;2022-11-21T07:00:39;5.07;;;1.17;;
69358;SDS011;56520;49.066;8.660;2022-11-21T07:03:04;5.50;;;1.10;;
69358;SDS011;56520;49.066;8.660;2022-11-21T07:05:29;1.67;;;0.73;;
69358;SDS011;56520;49.066;8.660;2022-11-21T07:08:01;2.80;;;1.10;;
69358;SDS011;56520;49.066;8.660;2022-11-21T07:10:28;2.00;;;0.90;;
69358;SDS011;56520;49.066;8.660;2022-11-21T07:13:00;1.67;;;0.70;;
69358;SDS011;56520;49.066;8.660;2022-11-21T07:15:45;3.42;;;1.02;;
69358;SDS011;56520;49.066;8.660;2022-11-21T07:18:12;1.13;;;0.60;;
69358;SDS011;56520;49.066;8.660;2022-11-21T07:20:38;4.00;;;1.00;;
69358;SDS011;56520;49.066;8.660;2022-11-21T07:23:05;3.40;;;0.95;;
69358;SDS011;56520;49.066;8.660;2022-11-21T07:25:31;4.25;;;1.10;;
69358;SDS011;56520;49.066;8.660;2022-11-21T07:27:57;2.40;;;1.00;;
69358;SDS011;56520;49.066;8.660;2022-11-21T07:30:23;2.50;;;1.05;;
69358;SDS011;56520;49.066;8.660;2022-11-21T07:32:56;2.80;;;0.77;;
69358;SDS011;56520;49.066;8.660;2022-11-21T07:35:22;2.70;;;0.82;;
69358;SDS011;56520;49.066;8.660;2022-11-21T07:37:48;4.82;;;1.08;;
69358;SDS011;56520;49.066;8.660;2022-11-21T07:40:14;3.10;;;1.00;;
69358;SDS011;56520;49.066;8.660;2022-11-21T07:42:39;4.43;;;1.10;;
69358;SDS011;56520;49.066;8.660;2022-11-21T07:45:05;1.40;;;0.68;;
69358;SDS011;56520;49.066;8.660;2022-11-21T07:47:31;2.60;;;0.85;;
69358;SDS011;56520;49.066;8.660;2022-11-21T07:49:56;3.70;;;0.82;;
69358;SDS011;56520;49.066;8.660;2022-11-21T07:52:21;3.67;;;1.30;;
69358;SDS011;56520;49.066;8.660;2022-11-21T07:54:47;2.33;;;0.88;;
69358;SDS011;56520;49.066;8.660;2022-11-21T07:57:12;5.88;;;1.27;;
69358;SDS011;56520;49.066;8.660;2022-11-21T07:59:38;4.88;;;1.13;;
69358;SDS011;56520;49.066;8.660;2022-11-21T08:02:03;7.25;;;1.20;;
69358;SDS011;56520;49.066;8.660;2022-11-21T08:04:29;3.63;;;0.82;;
69358;SDS011;56520;49.066;8.660;2022-11-21T08:06:54;4.40;;;1.08;;
69358;SDS011;56520;49.066;8.660;2022-11-21T08:09:20;4.10;;;0.90;;
69358;SDS011;56520;49.066;8.660;2022-11-21T08:11:45;1.63;;;0.77;;
69358;SDS011;56520;49.066;8.660;2022-11-21T08:14:10;12.45;;;4.03;;
69358;SDS011;56520;49.066;8.660;2022-11-21T08:16:36;7.53;;;2.20;;
69358;SDS011;56520;49.066;8.660;2022-11-21T08:19:02;5.68;;;1.45;;
69358;SDS011;56520;49.066;8.660;2022-11-21T08:21:27;6.00;;;1.52;;
69358;SDS011;56520;49.066;8.660;2022-11-21T08:23:53;10.23;;;2.40;;
69358;SDS011;56520;49.066;8.660;2022-11-21T08:26:19;10.63;;;2.20;;
69358;SDS011;56520;49.066;8.660;2022-11-21T08:28:44;4.43;;;1.10;;
69358;SDS011;56520;49.066;8.660;2022-11-21T08:31:10;5.47;;;1.10;;
69358;SDS011;56520;49.066;8.660;2022-11-21T08:33:36;4.00;;;1.25;;
69358;SDS011;56520;49.066;8.660;2022-11-21T08:36:02;4.28;;;0.90;;
69358;SDS011;56520;49.066;8.660;2022-11-21T08:38:31;3.83;;;1.27;;
69358;SDS011;56520;49.066;8.660;2022-11-21T08:40:57;4.82;;;1.23;;
69358;SDS011;56520;49.066;8.660;2022-11-21T08:43:42;12.13;;;3.20;;
69358;SDS011;56520;49.066;8.660;2022-11-21T08:46:07;6.03;;;1.30;;
69358;SDS011;56520;49.066;8.660;2022-11-21T08:48:33;3.17;;;0.88;;
69358;SDS011;56520;49.066;8.660;2022-11-21T08:50:58;7.20;;;2.10;;
69358;SDS011;56520;49.066;8.660;2022-11-21T08:53:24;3.95;;;1.02;;
69358;SDS011;56520;49.066;8.660;2022-11-21T08:55:50;5.80;;;1.92;;
69358;SDS011;56520;49.066;8.660;2022-11-21T08:58:17;14.82;;;3.38;;
69358;SDS011;56520;49.066;8.660;2022-11-21T09:00:43;3.35;;;0.98;;
69358;SDS011;56520;49.066;8.660;2022-11-21T09:03:08;5.32;;;1.17;;
69358;SDS011;56520;49.066;8.660;2022-11-21T09:05:33;6.18;;;1.00;;
69358;SDS011;56520;49.066;8.660;2022-11-21T09:07:59;5.60;;;1.13;;
69358;SDS011;56520;49.066;8.660;2022-11-21T09:10:25;4.78;;;1.40;;
69358;SDS011;56520;49.066;8.660;2022-11-21T09:12:51;4.28;;;1.27;;
69358;SDS011;56520;49.066;8.660;2022-11-21T09:15:17;8.20;;;1.30;;
69358;SDS011;56520;49.066;8.660;2022-11-21T09:18:01;2.92;;;1.17;;
69358;SDS011;56520;49.066;8.660;2022-11-21T09:20:27;4.35;;;1.08;;
69358;SDS011;56520;49.066;8.660;2022-11-21T09:22:53;6.03;;;1.13;;
69358;SDS011;56520;49.066;8.660;2022-11-21T09:25:18;3.72;;;1.00;;
69358;SDS011;56520;49.066;8.660;2022-11-21T09:27:44;3.45;;;0.98;;
69358;SDS011;56520;49.066;8.660;2022-11-21T09:30:09;3.22;;;0.90;;
69358;SDS011;56520;49.066;8.660;2022-11-21T09:32:35;5.60;;;1.30;;
69358;SDS011;56520;49.066;8.660;2022-11-21T09:35:01;4.00;;;1.00;;
69358;SDS011;56520;49.066;8.660;2022-11-21T09:37:27;4.43;;;0.85;;
69358;SDS011;56520;49.066;8.660;2022-11-21T09:39:52;5.30;;;1.25;;
69358;SDS011;56520;49.066;8.660;2022-11-21T09:47:42;3.28;;;0.93;;
69358;SDS011;56520;49.066;8.660;2022-11-21T09:57:47;2.88;;;1.00;;
69358;SDS011;56520;49.066;8.660;2022-11-21T10:00:19;4.28;;;0.90;;
69358;SDS011;56520;49.066;8.660;2022-11-21T10:02:52;4.78;;;1.08;;
69358;SDS011;56520;49.066;8.660;2022-11-21T10:05:31;4.38;;;0.70;;
69358;SDS011;56520;49.066;8.660;2022-11-21T10:08:02;2.13;;;0.80;;
69358;SDS011;56520;49.066;8.660;2022-11-21T10:10:42;2.17;;;0.65;;
69358;SDS011;56520;49.066;8.660;2022-11-21T10:22:09;3.75;;;0.90;;
69358;SDS011;56520;49.066;8.660;2022-11-21T10:25:13;2.40;;;0.68;;
69358;SDS011;56520;49.066;8.660;2022-11-21T10:27:55;1.88;;;0.65;;
69358;SDS011;56520;49.066;8.660;2022-11-21T10:30:28;5.10;;;1.00;;
69358;SDS011;56520;49.066;8.660;2022-11-21T10:38:21;1.45;;;0.60;;
69358;SDS011;56520;49.066;8.660;2022-11-21T10:40:59;3.22;;;0.90;;
69358;SDS011;56520;49.066;8.660;2022-11-21T10:46:22;2.03;;;0.65;;
69358;SDS011;56520;49.066;8.660;2022-11-21T10:48:58;2.60;;;0.88;;
69358;SDS011;56520;49.066;8.660;2022-11-21T10:57:27;4.30;;;0.80;;
69358;SDS011;56520;49.066;8.660;2022-11-21T10:59:57;1.00;;;0.63;;
69358;SDS011;56520;49.066;8.660;2022-11-21T11:02:25;2.28;;;0.80;;
69358;SDS011;56520;49.066;8.660;2022-11-21T11:05:25;3.17;;;0.93;;
69358;SDS011;56520;49.066;8.660;2022-11-21T11:07:57;4.25;;;0.95;;
69358;SDS011;56520;49.066;8.660;2022-11-21T11:12:49;4.03;;;1.00;;
69358;SDS011;56520;49.066;8.660;2022-11-21T11:15:34;2.80;;;0.90;;
69358;SDS011;56520;49.066;8.660;2022-11-21T11:18:03;4.53;;;1.00;;
69358;SDS011;56520;49.066;8.660;2022-11-21T11:20:48;3.33;;;0.60;;
69358;SDS011;56520;49.066;8.660;2022-11-21T11:25:53;2.60;;;0.82;;
69358;SDS011;56520;49.066;8.660;2022-11-21T11:28:20;3.97;;;1.17;;
69358;SDS011;56520;49.066;8.660;2022-11-21T11:30:50;5.25;;;1.00;;
69358;SDS011;56520;49.066;8.660;2022-11-21T11:33:51;4.18;;;1.13;;
69358;SDS011;56520;49.066;8.660;2022-11-21T11:38:58;9.48;;;1.45;;
69358;SDS011;56520;49.066;8.660;2022-11-21T11:41:44;3.85;;;1.23;;
69358;SDS011;56520;49.066;8.660;2022-11-21T11:47:51;3.53;;;0.80;;
69358;SDS011;56520;49.066;8.660;2022-11-21T11:50:26;2.55;;;0.90;;
69358;SDS011;56520;49.066;8.660;2022-11-21T11:56:23;4.82;;;1.13;;
69358;SDS011;56520;49.066;8.660;2022-11-21T12:01:50;2.78;;;0.93;;
69358;SDS011;56520;49.066;8.660;2022-11-21T12:04:23;4.13;;;1.15;;
69358;SDS011;56520;49.066;8.660;2022-11-21T12:23:25;5.45;;;0.93;;
69358;SDS011;56520;49.066;8.660;2022-11-21T12:26:04;6.72;;;1.10;;
69358;SDS011;56520;49.066;8.660;2022-11-21T12:34:11;3.13;;;0.85;;
69358;SDS011;56520;49.066;8.660;2022-11-21T12:41:54;1.98;;;0.80;;
69358;SDS011;56520;49.066;8.660;2022-11-21T12:51:12;3.97;;;1.20;;
69358;SDS011;56520;49.066;8.660;2022-11-21T12:54:19;3.47;;;0.95;;
69358;SDS011;56520;49.066;8.660;2022-11-21T12:59:32;3.50;;;1.08;;
69358;SDS011;56520;49.066;8.660;2022-11-21T13:05:08;3.33;;;0.90;;
69358;SDS011;56520;49.066;8.660;2022-11-21T13:07:37;4.78;;;1.15;;
69358;SDS011;56520;49.066;8.660;2022-11-21T13:10:04;6.10;;;1.23;;
69358;SDS011;56520;49.066;8.660;2022-11-21T13:12:48;4.30;;;1.20;;
69358;SDS011;56520;49.066;8.660;2022-11-21T13:15:23;6.13;;;1.02;;
69358;SDS011;56520;49.066;8.660;2022-11-21T13:18:53;3.60;;;0.98;;
69358;SDS011;56520;49.066;8.660;2022-11-21T13:20:54;7.32;;;1.23;;
69358;SDS011;56520;49.066;8.660;2022-11-21T13:28:48;4.30;;;0.80;;
69358;SDS011;56520;49.066;8.660;2022-11-21T13:31:32;4.53;;;1.20;;
69358;SDS011;56520;49.066;8.660;2022-11-21T13:33:59;2.30;;;0.82;;
69358;SDS011;56520;49.066;8.660;2022-11-21T13:49:23;6.53;;;1.20;;
69358;SDS011;56520;49.066;8.660;2022-11-21T13:52:25;2.85;;;0.82;;
69358;SDS011;56520;49.066;8.660;2022-11-21T14:08:20;1.90;;;0.60;;
69358;SDS011;56520;49.066;8.660;2022-11-21T14:10:47;2.65;;;0.90;;
69358;SDS011;56520;49.066;8.660;2022-11-21T14:13:22;3.85;;;0.90;;
69358;SDS011;56520;49.066;8.660;2022-11-21T14:15:58;3.17;;;0.95;;
69358;SDS011;56520;49.066;8.660;2022-11-21T14:18:28;4.10;;;0.88;;
69358;SDS011;56520;49.066;8.660;2022-11-21T14:20:56;3.72;;;0.82;;
69358;SDS011;56520;49.066;8.660;2022-11-21T14:23:27;3.35;;;0.80;;
69358;SDS011;56520;49.066;8.660;2022-11-21T14:28:38;3.28;;;0.82;;
69358;SDS011;56520;49.066;8.660;2022-11-21T14:31:04;2.45;;;0.98;;
69358;SDS011;56520;49.066;8.660;2022-11-21T14:33:32;4.78;;;0.93;;
69358;SDS011;56520;49.066;8.660;2022-11-21T14:36:02;2.05;;;0.80;;
69358;SDS011;56520;49.066;8.660;2022-11-21T14:38:38;5.60;;;1.08;;
69358;SDS011;56520;49.066;8.660;2022-11-21T14:43:51;4.15;;;1.27;;
69358;SDS011;56520;49.066;8.660;2022-11-21T14:46:37;4.95;;;1.65;;
69358;SDS011;56520;49.066;8.660;2022-11-21T14:51:36;6.88;;;1.83;;
69358;SDS011;56520;49.066;8.660;2022-11-21T14:54:02;4.07;;;1.17;;
69358;SDS011;56520;49.066;8.660;2022-11-21T14:56:28;4.35;;;1.48;;
69358;SDS011;56520;49.066;8.660;2022-11-21T14:58:56;6.22;;;1.98;;
69358;SDS011;56520;49.066;8.660;2022-11-21T15:01:31;4.38;;;1.30;;
69358;SDS011;56520;49.066;8.660;2022-11-21T15:04:05;3.50;;;1.00;;
69358;SDS011;56520;49.066;8.660;2022-11-21T15:06:42;7.28;;;1.40;;
69358;SDS011;56520;49.066;8.660;2022-11-21T15:09:12;3.53;;;1.20;;
69358;SDS011;56520;49.066;8.660;2022-11-21T15:14:35;3.10;;;0.80;;
69358;SDS011;56520;49.066;8.660;2022-11-21T15:17:07;3.67;;;1.25;;
69358;SDS011;56520;49.066;8.660;2022-11-21T15:19:37;5.20;;;1.50;;
69358;SDS011;56520;49.066;8.660;2022-11-21T15:22:05;5.30;;;1.33;;
69358;SDS011;56520;49.066;8.660;2022-11-21T15:32:33;4.72;;;1.52;;
69358;SDS011;56520;49.066;8.660;2022-11-21T15:34:58;4.03;;;1.35;;
69358;SDS011;56520;49.066;8.660;2022-11-21T15:37:47;13.32;;;5.18;;
69358;SDS011;56520;49.066;8.660;2022-11-21T15:40:17;17.00;;;5.32;;
69358;SDS011;56520;49.066;8.660;2022-11-21T15:42:44;14.05;;;3.55;;
69358;SDS011;56520;49.066;8.660;2022-11-21T15:47:38;5.65;;;1.40;;
69358;SDS011;56520;49.066;8.660;2022-11-21T15:50:03;5.93;;;1.10;;
69358;SDS011;56520;49.066;8.660;2022-11-21T15:52:29;2.13;;;0.80;;
69358;SDS011;56520;49.066;8.660;2022-11-21T15:54:54;2.55;;;0.70;;
69358;SDS011;56520;49.066;8.660;2022-11-21T15:57:20;2.72;;;1.27;;
69358;SDS011;56520;49.066;8.660;2022-11-21T16:00:07;3.38;;;0.95;;
69358;SDS011;56520;49.066;8.660;2022-11-21T16:02:33;3.47;;;0.93;;
69358;SDS011;56520;49.066;8.660;2022-11-21T16:04:58;2.97;;;1.10;;
69358;SDS011;56520;49.066;8.660;2022-11-21T16:07:23;2.10;;;0.82;;
69358;SDS011;56520;49.066;8.660;2022-11-21T16:09:49;4.00;;;0.90;;
69358;SDS011;56520;49.066;8.660;2022-11-21T16:12:16;2.40;;;0.85;;
69358;SDS011;56520;49.066;8.660;2022-11-21T16:14:41;3.30;;;0.85;;
69358;SDS011;56520;49.066;8.660;2022-11-21T16:17:09;3.78;;;1.00;;
69358;SDS011;56520;49.066;8.660;2022-11-21T16:19:34;4.25;;;1.08;;
69358;SDS011;56520;49.066;8.660;2022-11-21T16:22:00;5.35;;;0.82;;
69358;SDS011;56520;49.066;8.660;2022-11-21T16:24:25;2.53;;;1.08;;
69358;SDS011;56520;49.066;8.660;2022-11-21T16:26:50;4.80;;;1.20;;
69358;SDS011;56520;49.066;8.660;2022-11-21T16:29:18;2.88;;;1.00;;
69358;SDS011;56520;49.066;8.660;2022-11-21T16:31:44;3.30;;;0.98;;
69358;SDS011;56520;49.066;8.660;2022-11-21T16:34:09;2.53;;;0.85;;
69358;SDS011;56520;49.066;8.660;2022-11-21T16:36:35;5.70;;;1.10;;
69358;SDS011;56520;49.066;8.660;2022-11-21T16:39:00;3.33;;;1.20;;
69358;SDS011;56520;49.066;8.660;2022-11-21T16:41:26;3.28;;;0.88;;
69358;SDS011;56520;49.066;8.660;2022-11-21T16:43:52;5.57;;;1.30;;
69358;SDS011;56520;49.066;8.660;2022-11-21T16:46:19;3.70;;;0.98;;
69358;SDS011;56520;49.066;8.660;2022-11-21T16:48:47;2.92;;;0.90;;
69358;SDS011;56520;49.066;8.660;2022-11-21T16:53:40;4.13;;;1.05;;
69358;SDS011;56520;49.066;8.660;2022-11-21T16:56:06;2.58;;;0.88;;
69358;SDS011;56520;49.066;8.660;2022-11-21T16:58:32;4.85;;;1.38;;
69358;SDS011;56520;49.066;8.660;2022-11-21T17:01:05;3.72;;;1.30;;
69358;SDS011;56520;49.066;8.660;2022-11-21T17:03:35;3.58;;;0.93;;
69358;SDS011;56520;49.066;8.660;2022-11-21T17:06:02;3.30;;;1.00;;
69358;SDS011;56520;49.066;8.660;2022-11-21T17:08:27;3.38;;;0.95;;
69358;SDS011;56520;49.066;8.660;2022-11-21T17:10:53;4.03;;;1.10;;
69358;SDS011;56520;49.066;8.660;2022-11-21T17:13:19;6.32;;;1.60;;
69358;SDS011;56520;49.066;8.660;2022-11-21T17:15:44;6.95;;;1.35;;
69358;SDS011;56520;49.066;8.660;2022-11-21T17:18:10;5.93;;;2.05;;
69358;SDS011;56520;49.066;8.660;2022-11-21T17:20:35;6.53;;;2.05;;
69358;SDS011;56520;49.066;8.660;2022-11-21T17:23:01;6.85;;;2.10;;
69358;SDS011;56520;49.066;8.660;2022-11-21T17:25:27;5.30;;;2.00;;
69358;SDS011;56520;49.066;8.660;2022-11-21T17:27:52;4.45;;;1.55;;